sensor_id;sensor_type;location;lat;lon;timestamp;pressure;altitude;pressure_sealevel;temperature;humidity
77410;BME280;66481;51.332;22.804;2023-05-10T00:01:17;100342.28;;;4.77;60.82
77410;BME280;66481;51.332;22.804;2023-05-10T00:05:18;100343.69;;;4.86;60.42
77410;BME280;66481;51.332;22.804;2023-05-10T00:09:19;100336.81;;;4.83;60.75
77410;BME280;66481;51.332;22.804;2023-05-10T00:13:23;100334.31;;;4.80;60.70
77410;BME280;66481;51.332;22.804;2023-05-10T00:17:24;100330.66;;;4.84;60.10
77410;BME280;66481;51.332;22.804;2023-05-10T00:21:25;100326.50;;;4.79;60.44
77410;BME280;66481;51.332;22.804;2023-05-10T00:25:26;100323.41;;;4.69;61.02
77410;BME280;66481;51.332;22.804;2023-05-10T00:29:27;100334.06;;;4.64;61.10
77410;BME280;66481;51.332;22.804;2023-05-10T00:33:28;100326.50;;;4.79;60.22
77410;BME280;66481;51.332;22.804;2023-05-10T00:37:30;100327.91;;;4.65;60.82
77410;BME280;66481;51.332;22.804;2023-05-10T00:41:31;100324.91;;;4.52;61.79
77410;BME280;66481;51.332;22.804;2023-05-10T00:45:34;100321.88;;;4.41;62.53
77410;BME280;66481;51.332;22.804;2023-05-10T00:49:37;100327.75;;;4.46;61.93
77410;BME280;66481;51.332;22.804;2023-05-10T00:53:38;100331.38;;;4.44;62.11
77410;BME280;66481;51.332;22.804;2023-05-10T00:57:39;100329.16;;;4.33;62.79
77410;BME280;66481;51.332;22.804;2023-05-10T01:01:40;100324.16;;;4.27;62.73
77410;BME280;66481;51.332;22.804;2023-05-10T01:05:41;100314.88;;;4.18;62.92
77410;BME280;66481;51.332;22.804;2023-05-10T01:09:42;100320.34;;;4.12;63.52
77410;BME280;66481;51.332;22.804;2023-05-10T01:13:47;100318.28;;;4.20;63.61
77410;BME280;66481;51.332;22.804;2023-05-10T01:17:52;100310.56;;;4.17;63.22
77410;BME280;66481;51.332;22.804;2023-05-10T01:31:30;100314.97;;;4.15;63.10
77410;BME280;66481;51.332;22.804;2023-05-10T01:40:41;100307.38;;;4.09;63.66
77410;BME280;66481;51.332;22.804;2023-05-10T01:45:00;100306.53;;;4.08;63.37
77410;BME280;66481;51.332;22.804;2023-05-10T01:49:07;100295.16;;;4.08;63.72
77410;BME280;66481;51.332;22.804;2023-05-10T01:53:10;100300.47;;;4.06;63.36
77410;BME280;66481;51.332;22.804;2023-05-10T01:57:13;100295.41;;;4.02;63.78
77410;BME280;66481;51.332;22.804;2023-05-10T02:01:15;100295.63;;;3.95;64.12
77410;BME280;66481;51.332;22.804;2023-05-10T02:05:18;100300.19;;;3.90;64.41
77410;BME280;66481;51.332;22.804;2023-05-10T02:09:20;100288.34;;;3.80;64.88
77410;BME280;66481;51.332;22.804;2023-05-10T02:13:23;100300.34;;;3.62;65.73
77410;BME280;66481;51.332;22.804;2023-05-10T02:17:25;100293.63;;;3.55;66.39
77410;BME280;66481;51.332;22.804;2023-05-10T02:21:28;100290.34;;;3.48;66.66
77410;BME280;66481;51.332;22.804;2023-05-10T02:25:31;100294.66;;;3.49;66.36
77410;BME280;66481;51.332;22.804;2023-05-10T02:29:34;100288.81;;;3.43;66.93
77410;BME280;66481;51.332;22.804;2023-05-10T02:33:38;100279.50;;;3.34;67.24
77410;BME280;66481;51.332;22.804;2023-05-10T02:37:41;100291.00;;;3.30;67.65
77410;BME280;66481;51.332;22.804;2023-05-10T02:41:43;100279.13;;;3.19;67.44
77410;BME280;66481;51.332;22.804;2023-05-10T02:45:47;100286.94;;;3.21;67.92
77410;BME280;66481;51.332;22.804;2023-05-10T02:49:48;100283.63;;;3.16;67.60
77410;BME280;66481;51.332;22.804;2023-05-10T02:53:51;100286.94;;;3.21;67.44
77410;BME280;66481;51.332;22.804;2023-05-10T02:57:57;100293.41;;;3.36;67.06
77410;BME280;66481;51.332;22.804;2023-05-10T03:01:59;100276.75;;;3.38;67.00
77410;BME280;66481;51.332;22.804;2023-05-10T03:06:01;100291.84;;;3.55;66.35
77410;BME280;66481;51.332;22.804;2023-05-10T03:10:03;100284.41;;;3.68;65.62
77410;BME280;66481;51.332;22.804;2023-05-10T03:14:23;100288.16;;;4.32;64.05
77410;BME280;66481;51.332;22.804;2023-05-10T03:18:36;100285.59;;;5.17;60.69
77410;BME280;66481;51.332;22.804;2023-05-10T03:22:45;100286.22;;;5.84;57.58
77410;BME280;66481;51.332;22.804;2023-05-10T03:26:49;100280.13;;;6.59;56.99
77410;BME280;66481;51.332;22.804;2023-05-10T03:30:52;100276.63;;;6.59;55.95
77410;BME280;66481;51.332;22.804;2023-05-10T03:34:54;100273.38;;;7.43;53.94
77410;BME280;66481;51.332;22.804;2023-05-10T03:38:55;100266.31;;;7.77;52.28
77410;BME280;66481;51.332;22.804;2023-05-10T03:42:56;100268.56;;;8.50;50.73
77410;BME280;66481;51.332;22.804;2023-05-10T03:46:57;100274.72;;;8.64;50.10
77410;BME280;66481;51.332;22.804;2023-05-10T03:51:00;100261.13;;;9.33;48.41
77410;BME280;66481;51.332;22.804;2023-05-10T03:55:02;100252.94;;;9.95;47.48
77410;BME280;66481;51.332;22.804;2023-05-10T03:59:04;100258.09;;;10.11;46.59
77410;BME280;66481;51.332;22.804;2023-05-10T04:03:08;100260.50;;;10.97;45.50
77410;BME280;66481;51.332;22.804;2023-05-10T04:07:09;100264.38;;;11.70;43.38
77410;BME280;66481;51.332;22.804;2023-05-10T04:11:11;100253.63;;;12.47;42.09
77410;BME280;66481;51.332;22.804;2023-05-10T04:15:13;100246.88;;;13.03;40.67
77410;BME280;66481;51.332;22.804;2023-05-10T04:19:14;100248.97;;;13.10;39.98
77410;BME280;66481;51.332;22.804;2023-05-10T04:23:15;100247.19;;;12.63;40.11
77410;BME280;66481;51.332;22.804;2023-05-10T04:27:17;100259.59;;;12.14;40.89
77410;BME280;66481;51.332;22.804;2023-05-10T04:31:18;100250.06;;;12.35;40.51
77410;BME280;66481;51.332;22.804;2023-05-10T04:35:19;100247.06;;;13.70;38.73
77410;BME280;66481;51.332;22.804;2023-05-10T04:39:20;100254.56;;;13.88;37.36
77410;BME280;66481;51.332;22.804;2023-05-10T04:43:21;100259.00;;;12.34;40.18
77410;BME280;66481;51.332;22.804;2023-05-10T04:47:22;100254.41;;;13.56;38.42
77410;BME280;66481;51.332;22.804;2023-05-10T04:51:22;100255.34;;;14.34;36.86
77410;BME280;66481;51.332;22.804;2023-05-10T04:55:23;100261.72;;;14.65;35.89
77410;BME280;66481;51.332;22.804;2023-05-10T04:59:24;100249.38;;;15.59;33.90
77410;BME280;66481;51.332;22.804;2023-05-10T05:03:25;100247.28;;;16.25;32.68
77410;BME280;66481;51.332;22.804;2023-05-10T05:07:26;100249.16;;;16.03;32.98
77410;BME280;66481;51.332;22.804;2023-05-10T05:11:27;100244.69;;;15.52;34.40
77410;BME280;66481;51.332;22.804;2023-05-10T05:15:28;100250.34;;;16.20;34.56
77410;BME280;66481;51.332;22.804;2023-05-10T05:19:31;100246.25;;;16.16;33.76
77410;BME280;66481;51.332;22.804;2023-05-10T05:23:32;100245.53;;;16.04;33.97
77410;BME280;66481;51.332;22.804;2023-05-10T05:27:33;100252.06;;;15.69;34.01
77410;BME280;66481;51.332;22.804;2023-05-10T05:31:34;100260.56;;;15.11;34.90
77410;BME280;66481;51.332;22.804;2023-05-10T05:35:35;100247.63;;;16.80;33.53
77410;BME280;66481;51.332;22.804;2023-05-10T05:39:36;100256.56;;;16.30;32.86
77410;BME280;66481;51.332;22.804;2023-05-10T05:43:37;100257.63;;;17.84;32.72
77410;BME280;66481;51.332;22.804;2023-05-10T05:47:39;100248.78;;;17.74;32.05
77410;BME280;66481;51.332;22.804;2023-05-10T05:51:40;100247.81;;;18.30;31.35
77410;BME280;66481;51.332;22.804;2023-05-10T05:55:51;100250.41;;;17.94;32.81
77410;BME280;66481;51.332;22.804;2023-05-10T05:59:52;100254.59;;;18.52;32.39
77410;BME280;66481;51.332;22.804;2023-05-10T06:03:53;100260.25;;;17.46;34.71
77410;BME280;66481;51.332;22.804;2023-05-10T06:07:54;100266.44;;;17.47;34.54
77410;BME280;66481;51.332;22.804;2023-05-10T06:11:55;100261.22;;;17.45;35.15
77410;BME280;66481;51.332;22.804;2023-05-10T06:15:58;100266.13;;;18.07;34.03
77410;BME280;66481;51.332;22.804;2023-05-10T06:19:59;100264.59;;;18.04;33.72
77410;BME280;66481;51.332;22.804;2023-05-10T06:24:00;100270.41;;;17.43;34.31
77410;BME280;66481;51.332;22.804;2023-05-10T06:28:01;100258.75;;;17.34;35.88
77410;BME280;66481;51.332;22.804;2023-05-10T06:32:02;100261.13;;;17.37;36.56
77410;BME280;66481;51.332;22.804;2023-05-10T06:36:04;100261.72;;;18.16;34.53
77410;BME280;66481;51.332;22.804;2023-05-10T06:40:06;100262.78;;;18.51;34.28
77410;BME280;66481;51.332;22.804;2023-05-10T06:44:07;100269.53;;;17.52;34.81
77410;BME280;66481;51.332;22.804;2023-05-10T06:48:10;100261.94;;;17.47;36.50
77410;BME280;66481;51.332;22.804;2023-05-10T06:52:11;100262.41;;;18.18;35.00
77410;BME280;66481;51.332;22.804;2023-05-10T06:56:15;100267.09;;;19.33;34.80
77410;BME280;66481;51.332;22.804;2023-05-10T07:00:17;100271.50;;;18.07;34.69
77410;BME280;66481;51.332;22.804;2023-05-10T07:04:19;100268.97;;;18.33;31.77
77410;BME280;66481;51.332;22.804;2023-05-10T07:08:20;100268.41;;;19.29;30.67
77410;BME280;66481;51.332;22.804;2023-05-10T07:12:21;100255.50;;;20.71;28.67
77410;BME280;66481;51.332;22.804;2023-05-10T07:16:22;100262.00;;;20.52;29.11
77410;BME280;66481;51.332;22.804;2023-05-10T07:20:26;100262.41;;;19.88;28.49
77410;BME280;66481;51.332;22.804;2023-05-10T07:24:27;100257.34;;;20.11;26.86
77410;BME280;66481;51.332;22.804;2023-05-10T07:28:28;100272.97;;;20.16;28.73
77410;BME280;66481;51.332;22.804;2023-05-10T07:32:29;100258.16;;;20.54;27.85
77410;BME280;66481;51.332;22.804;2023-05-10T07:36:31;100266.19;;;20.46;28.45
77410;BME280;66481;51.332;22.804;2023-05-10T07:40:32;100267.97;;;19.86;27.29
77410;BME280;66481;51.332;22.804;2023-05-10T07:44:33;100253.66;;;20.20;25.63
77410;BME280;66481;51.332;22.804;2023-05-10T07:48:34;100239.81;;;21.73;25.81
77410;BME280;66481;51.332;22.804;2023-05-10T07:52:35;100245.63;;;20.88;25.47
77410;BME280;66481;51.332;22.804;2023-05-10T07:56:36;100253.66;;;20.63;25.12
77410;BME280;66481;51.332;22.804;2023-05-10T08:00:37;100266.84;;;18.83;26.14
77410;BME280;66481;51.332;22.804;2023-05-10T08:04:41;100255.53;;;20.95;25.16
77410;BME280;66481;51.332;22.804;2023-05-10T08:08:42;100248.47;;;20.70;24.66
77410;BME280;66481;51.332;22.804;2023-05-10T08:12:43;100263.16;;;19.02;23.09
77410;BME280;66481;51.332;22.804;2023-05-10T08:16:44;100257.72;;;19.38;23.24
77410;BME280;66481;51.332;22.804;2023-05-10T08:20:45;100258.72;;;19.10;24.49
77410;BME280;66481;51.332;22.804;2023-05-10T08:24:46;100252.72;;;19.43;22.87
77410;BME280;66481;51.332;22.804;2023-05-10T08:28:47;100249.22;;;19.42;26.11
77410;BME280;66481;51.332;22.804;2023-05-10T08:32:48;100253.13;;;18.40;27.58
77410;BME280;66481;51.332;22.804;2023-05-10T08:36:49;100250.25;;;17.58;27.76
77410;BME280;66481;51.332;22.804;2023-05-10T08:40:52;100244.13;;;18.41;25.69
77410;BME280;66481;51.332;22.804;2023-05-10T08:44:57;100245.72;;;19.24;24.96
77410;BME280;66481;51.332;22.804;2023-05-10T08:49:01;100248.09;;;18.09;27.28
77410;BME280;66481;51.332;22.804;2023-05-10T08:53:12;100248.22;;;17.70;25.45
77410;BME280;66481;51.332;22.804;2023-05-10T08:57:13;100252.94;;;19.23;27.41
77410;BME280;66481;51.332;22.804;2023-05-10T09:01:16;100235.25;;;19.91;26.95
77410;BME280;66481;51.332;22.804;2023-05-10T09:05:18;100264.31;;;19.43;24.85
77410;BME280;66481;51.332;22.804;2023-05-10T09:09:20;100243.75;;;19.08;24.38
77410;BME280;66481;51.332;22.804;2023-05-10T09:13:23;100275.53;;;16.87;27.37
77410;BME280;66481;51.332;22.804;2023-05-10T09:17:25;100249.00;;;18.46;25.59
77410;BME280;66481;51.332;22.804;2023-05-10T09:21:26;100248.44;;;18.24;22.91
77410;BME280;66481;51.332;22.804;2023-05-10T09:25:28;100252.16;;;17.09;26.34
77410;BME280;66481;51.332;22.804;2023-05-10T09:29:42;100265.88;;;17.43;23.95
77410;BME280;66481;51.332;22.804;2023-05-10T09:33:44;100242.88;;;17.70;25.19
77410;BME280;66481;51.332;22.804;2023-05-10T09:37:51;100253.13;;;17.27;27.20
77410;BME280;66481;51.332;22.804;2023-05-10T09:41:54;100254.13;;;17.17;24.54
77410;BME280;66481;51.332;22.804;2023-05-10T09:45:55;100248.97;;;16.35;29.91
77410;BME280;66481;51.332;22.804;2023-05-10T09:49:57;100239.34;;;18.07;27.04
77410;BME280;66481;51.332;22.804;2023-05-10T09:54:14;100253.75;;;17.59;23.49
77410;BME280;66481;51.332;22.804;2023-05-10T09:58:16;100226.78;;;16.64;26.49
77410;BME280;66481;51.332;22.804;2023-05-10T10:02:18;100233.84;;;16.75;27.62
77410;BME280;66481;51.332;22.804;2023-05-10T10:06:20;100234.47;;;16.19;28.10
77410;BME280;66481;51.332;22.804;2023-05-10T10:10:21;100210.91;;;17.12;26.13
77410;BME280;66481;51.332;22.804;2023-05-10T10:14:23;100226.25;;;16.80;28.10
77410;BME280;66481;51.332;22.804;2023-05-10T10:18:24;100230.28;;;16.35;28.38
77410;BME280;66481;51.332;22.804;2023-05-10T10:22:27;100213.00;;;15.89;27.10
77410;BME280;66481;51.332;22.804;2023-05-10T10:26:29;100212.75;;;16.02;26.62
77410;BME280;66481;51.332;22.804;2023-05-10T10:30:47;100237.88;;;15.59;27.25
77410;BME280;66481;51.332;22.804;2023-05-10T10:34:49;100209.56;;;16.08;30.71
77410;BME280;66481;51.332;22.804;2023-05-10T10:39:00;100217.47;;;16.20;27.04
77410;BME280;66481;51.332;22.804;2023-05-10T10:43:22;100195.28;;;16.29;26.43
77410;BME280;66481;51.332;22.804;2023-05-10T10:47:28;100202.31;;;16.59;27.94
77410;BME280;66481;51.332;22.804;2023-05-10T10:51:31;100187.81;;;16.32;26.69
77410;BME280;66481;51.332;22.804;2023-05-10T10:55:32;100197.97;;;15.57;26.28
77410;BME280;66481;51.332;22.804;2023-05-10T10:59:33;100184.94;;;15.95;29.11
77410;BME280;66481;51.332;22.804;2023-05-10T11:03:34;100187.44;;;15.87;27.63
77410;BME280;66481;51.332;22.804;2023-05-10T11:07:35;100183.00;;;16.07;26.32
77410;BME280;66481;51.332;22.804;2023-05-10T11:11:48;100177.56;;;16.57;30.07
77410;BME280;66481;51.332;22.804;2023-05-10T11:15:50;100177.41;;;16.20;27.86
77410;BME280;66481;51.332;22.804;2023-05-10T11:20:09;100164.19;;;16.18;26.73
77410;BME280;66481;51.332;22.804;2023-05-10T11:24:16;100159.84;;;16.36;25.25
77410;BME280;66481;51.332;22.804;2023-05-10T11:28:18;100163.53;;;15.75;28.16
77410;BME280;66481;51.332;22.804;2023-05-10T11:32:20;100157.72;;;16.21;26.10
77410;BME280;66481;51.332;22.804;2023-05-10T11:36:24;100155.06;;;16.11;26.36
77410;BME280;66481;51.332;22.804;2023-05-10T11:40:26;100161.22;;;16.21;27.87
77410;BME280;66481;51.332;22.804;2023-05-10T11:44:31;100162.31;;;15.89;26.78
77410;BME280;66481;51.332;22.804;2023-05-10T11:48:32;100152.50;;;16.00;26.71
77410;BME280;66481;51.332;22.804;2023-05-10T11:52:36;100164.75;;;16.12;24.98
77410;BME280;66481;51.332;22.804;2023-05-10T11:56:40;100151.66;;;16.09;26.69
77410;BME280;66481;51.332;22.804;2023-05-10T12:00:42;100148.72;;;16.31;28.07
77410;BME280;66481;51.332;22.804;2023-05-10T12:04:43;100151.69;;;16.19;26.26
77410;BME280;66481;51.332;22.804;2023-05-10T12:08:48;100163.75;;;16.03;24.50
77410;BME280;66481;51.332;22.804;2023-05-10T12:12:53;100168.09;;;16.04;25.61
77410;BME280;66481;51.332;22.804;2023-05-10T12:16:57;100134.78;;;15.89;25.51
77410;BME280;66481;51.332;22.804;2023-05-10T12:21:03;100141.16;;;16.27;24.64
77410;BME280;66481;51.332;22.804;2023-05-10T12:25:04;100145.03;;;15.93;26.25
77410;BME280;66481;51.332;22.804;2023-05-10T12:29:17;100135.47;;;15.91;27.09
77410;BME280;66481;51.332;22.804;2023-05-10T12:33:18;100136.91;;;16.24;26.76
77410;BME280;66481;51.332;22.804;2023-05-10T12:37:24;100138.59;;;16.15;27.53
77410;BME280;66481;51.332;22.804;2023-05-10T12:41:24;100132.69;;;16.12;27.46
77410;BME280;66481;51.332;22.804;2023-05-10T12:45:25;100120.91;;;16.14;30.99
77410;BME280;66481;51.332;22.804;2023-05-10T12:49:26;100126.91;;;15.56;26.24
77410;BME280;66481;51.332;22.804;2023-05-10T12:53:27;100132.31;;;15.66;27.54
77410;BME280;66481;51.332;22.804;2023-05-10T12:57:29;100137.16;;;15.51;26.55
77410;BME280;66481;51.332;22.804;2023-05-10T13:01:30;100116.22;;;15.47;27.58
77410;BME280;66481;51.332;22.804;2023-05-10T13:05:33;100120.88;;;15.54;27.40
77410;BME280;66481;51.332;22.804;2023-05-10T13:09:35;100103.31;;;15.42;29.18
77410;BME280;66481;51.332;22.804;2023-05-10T13:13:36;100104.88;;;15.64;27.66
77410;BME280;66481;51.332;22.804;2023-05-10T13:17:37;100109.91;;;15.48;28.39
77410;BME280;66481;51.332;22.804;2023-05-10T13:21:39;100096.09;;;15.33;27.69
77410;BME280;66481;51.332;22.804;2023-05-10T13:25:45;100101.25;;;15.65;28.06
77410;BME280;66481;51.332;22.804;2023-05-10T13:29:46;100089.00;;;15.53;28.24
77410;BME280;66481;51.332;22.804;2023-05-10T13:33:47;100080.31;;;15.51;27.61
77410;BME280;66481;51.332;22.804;2023-05-10T13:37:48;100081.47;;;15.68;27.16
77410;BME280;66481;51.332;22.804;2023-05-10T13:41:50;100083.22;;;15.78;26.75
77410;BME280;66481;51.332;22.804;2023-05-10T13:45:51;100073.09;;;15.82;30.24
77410;BME280;66481;51.332;22.804;2023-05-10T13:49:53;100071.06;;;15.65;27.56
77410;BME280;66481;51.332;22.804;2023-05-10T13:53:54;100086.81;;;15.68;27.97
77410;BME280;66481;51.332;22.804;2023-05-10T13:57:55;100068.38;;;15.45;27.40
77410;BME280;66481;51.332;22.804;2023-05-10T14:01:56;100055.16;;;15.44;28.55
77410;BME280;66481;51.332;22.804;2023-05-10T14:05:58;100057.09;;;15.32;28.09
77410;BME280;66481;51.332;22.804;2023-05-10T14:09:59;100052.50;;;15.44;27.85
77410;BME280;66481;51.332;22.804;2023-05-10T14:14:00;100050.84;;;15.62;29.08
77410;BME280;66481;51.332;22.804;2023-05-10T14:18:01;100052.91;;;15.39;28.77
77410;BME280;66481;51.332;22.804;2023-05-10T14:22:02;100064.25;;;15.41;26.64
77410;BME280;66481;51.332;22.804;2023-05-10T14:26:03;100050.63;;;15.25;28.22
77410;BME280;66481;51.332;22.804;2023-05-10T14:30:05;100043.31;;;15.36;27.83
77410;BME280;66481;51.332;22.804;2023-05-10T14:34:05;100044.19;;;15.47;27.62
77410;BME280;66481;51.332;22.804;2023-05-10T14:38:07;100043.94;;;15.50;28.60
77410;BME280;66481;51.332;22.804;2023-05-10T14:42:09;100042.47;;;15.26;28.77
77410;BME280;66481;51.332;22.804;2023-05-10T14:46:10;100043.31;;;15.36;29.56
77410;BME280;66481;51.332;22.804;2023-05-10T14:50:11;100040.25;;;15.41;29.44
77410;BME280;66481;51.332;22.804;2023-05-10T14:54:12;100050.19;;;15.29;28.21
77410;BME280;66481;51.332;22.804;2023-05-10T14:58:13;100038.38;;;15.22;29.63
77410;BME280;66481;51.332;22.804;2023-05-10T15:02:14;100048.28;;;15.10;28.03
77410;BME280;66481;51.332;22.804;2023-05-10T15:06:15;100029.94;;;15.17;29.43
77410;BME280;66481;51.332;22.804;2023-05-10T15:10:17;100029.38;;;15.13;28.90
77410;BME280;66481;51.332;22.804;2023-05-10T15:14:19;100040.22;;;15.21;28.48
77410;BME280;66481;51.332;22.804;2023-05-10T15:18:20;100022.47;;;15.01;28.68
77410;BME280;66481;51.332;22.804;2023-05-10T15:22:20;100036.75;;;15.00;29.20
77410;BME280;66481;51.332;22.804;2023-05-10T15:26:22;100038.84;;;14.96;27.75
77410;BME280;66481;51.332;22.804;2023-05-10T15:30:23;100041.09;;;15.01;29.08
77410;BME280;66481;51.332;22.804;2023-05-10T15:34:24;100033.34;;;14.88;28.64
77410;BME280;66481;51.332;22.804;2023-05-10T15:38:25;100042.44;;;14.85;30.71
77410;BME280;66481;51.332;22.804;2023-05-10T15:42:27;100044.97;;;14.87;29.75
77410;BME280;66481;51.332;22.804;2023-05-10T15:46:29;100032.75;;;14.84;29.32
77410;BME280;66481;51.332;22.804;2023-05-10T15:50:31;100036.66;;;14.80;29.81
77410;BME280;66481;51.332;22.804;2023-05-10T15:54:32;100025.50;;;14.65;29.95
77410;BME280;66481;51.332;22.804;2023-05-10T15:58:34;100034.34;;;14.66;29.15
77410;BME280;66481;51.332;22.804;2023-05-10T16:02:35;100029.97;;;14.65;29.54
77410;BME280;66481;51.332;22.804;2023-05-10T16:06:38;100037.28;;;14.52;29.13
77410;BME280;66481;51.332;22.804;2023-05-10T16:10:41;100039.66;;;14.45;29.59
77410;BME280;66481;51.332;22.804;2023-05-10T16:14:43;100031.59;;;14.35;29.42
77410;BME280;66481;51.332;22.804;2023-05-10T16:18:44;100030.34;;;14.39;29.32
77410;BME280;66481;51.332;22.804;2023-05-10T16:22:46;100039.47;;;14.37;27.51
77410;BME280;66481;51.332;22.804;2023-05-10T16:26:47;100035.88;;;14.26;27.59
77410;BME280;66481;51.332;22.804;2023-05-10T16:30:49;100043.28;;;14.23;30.13
77410;BME280;66481;51.332;22.804;2023-05-10T16:34:50;100035.09;;;14.15;29.17
77410;BME280;66481;51.332;22.804;2023-05-10T16:38:53;100036.69;;;14.06;29.38
77410;BME280;66481;51.332;22.804;2023-05-10T16:42:56;100038.91;;;14.01;31.79
77410;BME280;66481;51.332;22.804;2023-05-10T16:46:57;100038.69;;;13.92;30.62
77410;BME280;66481;51.332;22.804;2023-05-10T16:50:58;100041.53;;;13.80;30.87
77410;BME280;66481;51.332;22.804;2023-05-10T16:55:00;100046.63;;;13.71;30.04
77410;BME280;66481;51.332;22.804;2023-05-10T16:59:01;100048.91;;;13.65;30.75
77410;BME280;66481;51.332;22.804;2023-05-10T17:03:02;100060.06;;;13.47;31.69
77410;BME280;66481;51.332;22.804;2023-05-10T17:07:04;100066.13;;;13.49;30.91
77410;BME280;66481;51.332;22.804;2023-05-10T17:11:05;100064.81;;;13.32;32.82
77410;BME280;66481;51.332;22.804;2023-05-10T17:15:06;100057.16;;;13.16;33.59
77410;BME280;66481;51.332;22.804;2023-05-10T17:19:08;100052.22;;;13.01;34.44
77410;BME280;66481;51.332;22.804;2023-05-10T17:23:09;100058.50;;;12.77;35.90
77410;BME280;66481;51.332;22.804;2023-05-10T17:32:26;100081.19;;;12.34;37.25
77410;BME280;66481;51.332;22.804;2023-05-10T17:36:27;100081.44;;;12.07;38.03
77410;BME280;66481;51.332;22.804;2023-05-10T17:40:29;100089.72;;;12.02;37.00
77410;BME280;66481;51.332;22.804;2023-05-10T17:44:30;100083.69;;;12.00;36.68
77410;BME280;66481;51.332;22.804;2023-05-10T17:48:31;100078.25;;;11.91;37.00
77410;BME280;66481;51.332;22.804;2023-05-10T17:52:33;100092.47;;;11.77;37.67
77410;BME280;66481;51.332;22.804;2023-05-10T17:56:35;100094.84;;;11.56;38.42
77410;BME280;66481;51.332;22.804;2023-05-10T18:00:37;100101.38;;;11.39;38.30
77410;BME280;66481;51.332;22.804;2023-05-10T18:04:39;100098.63;;;11.27;39.25
77410;BME280;66481;51.332;22.804;2023-05-10T18:08:40;100097.91;;;11.13;39.33
77410;BME280;66481;51.332;22.804;2023-05-10T18:12:41;100108.50;;;10.87;41.97
77410;BME280;66481;51.332;22.804;2023-05-10T18:16:43;100116.81;;;10.55;42.76
77410;BME280;66481;51.332;22.804;2023-05-10T18:20:44;100113.53;;;10.39;42.53
77410;BME280;66481;51.332;22.804;2023-05-10T18:24:46;100119.44;;;10.15;44.58
77410;BME280;66481;51.332;22.804;2023-05-10T18:28:47;100129.00;;;10.03;44.87
77410;BME280;66481;51.332;22.804;2023-05-10T18:32:48;100134.72;;;9.97;45.46
77410;BME280;66481;51.332;22.804;2023-05-10T18:36:50;100140.00;;;9.83;44.77
77410;BME280;66481;51.332;22.804;2023-05-10T18:40:52;100143.34;;;9.86;44.35
77410;BME280;66481;51.332;22.804;2023-05-10T18:44:53;100142.78;;;9.81;44.97
77410;BME280;66481;51.332;22.804;2023-05-10T18:48:55;100152.34;;;9.69;45.65
77410;BME280;66481;51.332;22.804;2023-05-10T18:52:57;100150.66;;;9.54;46.97
77410;BME280;66481;51.332;22.804;2023-05-10T18:56:58;100158.78;;;9.36;47.56
77410;BME280;66481;51.332;22.804;2023-05-10T19:00:59;100161.38;;;9.22;48.39
77410;BME280;66481;51.332;22.804;2023-05-10T19:05:00;100162.53;;;9.18;47.49
77410;BME280;66481;51.332;22.804;2023-05-10T19:09:02;100165.25;;;9.02;48.50
77410;BME280;66481;51.332;22.804;2023-05-10T19:13:04;100164.94;;;8.92;49.15
77410;BME280;66481;51.332;22.804;2023-05-10T19:17:05;100163.97;;;8.79;48.88
77410;BME280;66481;51.332;22.804;2023-05-10T19:21:06;100172.34;;;8.71;48.60
77410;BME280;66481;51.332;22.804;2023-05-10T19:25:08;100165.09;;;8.75;49.46
77410;BME280;66481;51.332;22.804;2023-05-10T19:29:11;100158.97;;;8.74;48.75
77410;BME280;66481;51.332;22.804;2023-05-10T19:33:16;100156.91;;;8.79;48.21
77410;BME280;66481;51.332;22.804;2023-05-10T19:37:18;100161.25;;;8.80;47.61
77410;BME280;66481;51.332;22.804;2023-05-10T19:41:19;100165.19;;;8.73;47.95
77410;BME280;66481;51.332;22.804;2023-05-10T19:45:22;100166.97;;;8.73;47.45
77410;BME280;66481;51.332;22.804;2023-05-10T19:49:23;100180.50;;;8.66;48.24
77410;BME280;66481;51.332;22.804;2023-05-10T19:53:24;100172.47;;;8.54;47.71
77410;BME280;66481;51.332;22.804;2023-05-10T19:57:26;100165.25;;;8.41;49.16
77410;BME280;66481;51.332;22.804;2023-05-10T20:01:28;100178.38;;;8.43;48.98
77410;BME280;66481;51.332;22.804;2023-05-10T20:05:29;100169.34;;;8.31;48.80
77410;BME280;66481;51.332;22.804;2023-05-10T20:09:31;100174.88;;;8.42;48.12
77410;BME280;66481;51.332;22.804;2023-05-10T20:13:32;100173.28;;;8.24;49.69
77410;BME280;66481;51.332;22.804;2023-05-10T20:17:34;100180.50;;;8.20;49.67
77410;BME280;66481;51.332;22.804;2023-05-10T20:21:36;100177.88;;;8.20;49.47
77410;BME280;66481;51.332;22.804;2023-05-10T20:25:38;100181.09;;;8.09;50.01
77410;BME280;66481;51.332;22.804;2023-05-10T20:29:39;100178.28;;;8.13;50.10
77410;BME280;66481;51.332;22.804;2023-05-10T20:33:40;100172.88;;;8.00;50.10
77410;BME280;66481;51.332;22.804;2023-05-10T20:37:41;100180.50;;;7.88;51.01
77410;BME280;66481;51.332;22.804;2023-05-10T20:41:42;100184.16;;;7.86;50.78
77410;BME280;66481;51.332;22.804;2023-05-10T20:45:43;100179.81;;;7.69;51.82
77410;BME280;66481;51.332;22.804;2023-05-10T20:49:44;100183.03;;;7.58;52.40
77410;BME280;66481;51.332;22.804;2023-05-10T20:53:45;100185.66;;;7.58;51.72
77410;BME280;66481;51.332;22.804;2023-05-10T20:57:47;100186.56;;;7.41;51.96
77410;BME280;66481;51.332;22.804;2023-05-10T21:01:49;100182.72;;;7.31;53.11
77410;BME280;66481;51.332;22.804;2023-05-10T21:05:50;100183.50;;;7.15;54.03
77410;BME280;66481;51.332;22.804;2023-05-10T21:09:51;100188.66;;;7.01;54.24
77410;BME280;66481;51.332;22.804;2023-05-10T21:13:53;100181.13;;;6.93;54.45